createdAt,value
2023-05-08T00:00:45.090Z,14.45
2023-05-08T00:03:47.538Z,14.33
2023-05-08T00:06:51.911Z,14.36
2023-05-08T00:09:54.296Z,14.21
2023-05-08T00:12:57.149Z,14.14
2023-05-08T00:15:59.473Z,14.05
2023-05-08T00:19:01.803Z,13.81
2023-05-08T00:22:04.032Z,13.57
2023-05-08T00:25:06.478Z,13.40
2023-05-08T00:28:08.841Z,13.27
2023-05-08T00:31:12.015Z,13.04
2023-05-08T00:34:14.262Z,13.03
2023-05-08T00:37:17.239Z,13.12
2023-05-08T00:40:19.909Z,13.17
2023-05-08T00:43:25.874Z,13.16
2023-05-08T00:46:28.298Z,13.27
2023-05-08T00:49:30.776Z,13.36
2023-05-08T00:52:33.684Z,13.24
2023-05-08T00:55:36.014Z,13.33
2023-05-08T00:58:39.887Z,13.26
2023-05-08T01:01:44.019Z,13.16
2023-05-08T01:04:46.863Z,13.14
2023-05-08T01:07:49.320Z,13.20
2023-05-08T01:11:17.261Z,13.19
2023-05-08T01:14:56.443Z,12.97
2023-05-08T01:18:28.234Z,12.85
2023-05-08T01:21:50.506Z,12.59
2023-05-08T01:25:30.269Z,12.44
2023-05-08T01:28:45.456Z,12.64
2023-05-08T01:31:59.745Z,12.58
2023-05-08T01:35:38.570Z,12.52
2023-05-08T01:38:56.293Z,12.55
2023-05-08T01:42:31.708Z,12.51
2023-05-08T01:45:39.696Z,12.59
2023-05-08T01:48:51.479Z,12.59
2023-05-08T01:52:07.423Z,12.56
2023-05-08T01:55:14.214Z,12.48
2023-05-08T01:58:17.140Z,12.37
2023-05-08T02:01:23.665Z,12.21
2023-05-08T02:04:27.957Z,12.14
2023-05-08T02:07:31.583Z,12.14
2023-05-08T02:10:35.869Z,12.00
2023-05-08T02:13:39.625Z,11.63
2023-05-08T02:16:43.603Z,11.47
2023-05-08T02:19:48.088Z,11.38
2023-05-08T02:22:51.719Z,11.23
2023-05-08T02:25:55.004Z,11.25
2023-05-08T02:28:58.532Z,11.16
2023-05-08T02:32:03.654Z,11.22
2023-05-08T02:35:06.925Z,11.26
2023-05-08T02:38:10.790Z,11.22
2023-05-08T02:41:15.246Z,11.22
2023-05-08T02:44:17.717Z,11.19
2023-05-08T02:47:27.859Z,11.14
2023-05-08T02:51:21.358Z,11.16
2023-05-08T02:54:37.093Z,11.25
2023-05-08T02:57:51.240Z,11.33
2023-05-08T03:01:07.396Z,11.26
2023-05-08T03:04:12.462Z,11.12
2023-05-08T03:07:16.175Z,11.18
2023-05-08T03:10:21.776Z,11.29
2023-05-08T03:13:27.645Z,11.31
2023-05-08T03:16:35.084Z,11.40
2023-05-08T03:19:39.325Z,11.47
2023-05-08T03:22:44.737Z,11.46
2023-05-08T03:25:47.416Z,11.43
2023-05-08T03:28:52.690Z,11.50
2023-05-08T03:32:00.777Z,11.49
2023-05-08T03:35:04.478Z,11.46
2023-05-08T03:38:07.959Z,11.38
2023-05-08T03:41:11.665Z,11.32
2023-05-08T03:44:14.536Z,11.01
2023-05-08T03:47:18.191Z,10.91
2023-05-08T03:50:20.893Z,10.90
2023-05-08T03:53:23.431Z,10.85
2023-05-08T03:56:26.199Z,10.92
2023-05-08T03:59:42.482Z,10.80
2023-05-08T04:02:52.751Z,10.64
2023-05-08T04:06:03.081Z,10.63
2023-05-08T04:09:31.380Z,10.65
2023-05-08T04:12:55.674Z,10.40
2023-05-08T04:16:07.289Z,10.26
2023-05-08T04:19:13.875Z,10.21
2023-05-08T04:22:20.389Z,10.33
2023-05-08T04:25:22.931Z,10.41
2023-05-08T04:28:25.507Z,10.56
2023-05-08T04:31:28.345Z,10.64
2023-05-08T04:34:31.229Z,10.56
2023-05-08T04:37:33.610Z,10.56
2023-05-08T04:40:38.279Z,10.50
2023-05-08T04:43:40.805Z,10.47
2023-05-08T04:46:43.874Z,10.41
2023-05-08T04:49:47.032Z,10.33
2023-05-08T04:52:49.786Z,10.33
2023-05-08T04:55:52.995Z,10.39
2023-05-08T04:58:55.618Z,10.67
2023-05-08T05:01:59.042Z,10.78
2023-05-08T05:05:01.520Z,10.71
2023-05-08T05:08:05.003Z,10.95
2023-05-08T05:11:07.320Z,11.02
2023-05-08T05:14:09.566Z,11.18
2023-05-08T05:17:11.896Z,11.15
2023-05-08T05:20:15.102Z,11.22
2023-05-08T05:23:17.536Z,11.29
2023-05-08T05:26:21.701Z,11.40
2023-05-08T05:29:24.325Z,11.19
2023-05-08T05:32:26.726Z,11.16
2023-05-08T05:35:29.231Z,11.47
2023-05-08T05:38:32.723Z,11.55
2023-05-08T05:41:36.818Z,11.67
2023-05-08T05:44:39.539Z,11.66
2023-05-08T05:47:54.475Z,11.70
2023-05-08T05:51:02.046Z,11.87
2023-05-08T05:54:05.585Z,11.79
2023-05-08T05:57:09.884Z,11.97
2023-05-08T06:00:12.639Z,12.01
2023-05-08T06:03:20.809Z,12.32
2023-05-08T06:06:23.188Z,12.18
2023-05-08T06:09:26.179Z,12.75
2023-05-08T06:12:28.558Z,13.23
2023-05-08T06:15:31.232Z,12.93
2023-05-08T06:18:34.013Z,13.57
2023-05-08T06:21:36.689Z,13.94
2023-05-08T06:24:39.121Z,14.63
2023-05-08T06:27:43.645Z,14.77
2023-05-08T06:30:46.917Z,14.88
2023-05-08T06:33:49.337Z,14.76
2023-05-08T06:36:51.589Z,15.17
2023-05-08T06:40:10.168Z,15.31
2023-05-08T06:43:13.939Z,15.70
2023-05-08T06:46:16.314Z,15.69
2023-05-08T06:49:18.611Z,15.95
2023-05-08T06:52:21.179Z,15.97
2023-05-08T06:55:23.606Z,16.06
2023-05-08T06:58:26.091Z,16.06
2023-05-08T07:01:28.403Z,16.05
2023-05-08T07:04:33.082Z,16.27
2023-05-08T07:07:35.360Z,16.33
2023-05-08T07:10:37.591Z,15.89
2023-05-08T07:13:39.990Z,16.24
2023-05-08T07:16:51.714Z,16.54
2023-05-08T07:19:54.343Z,16.47
2023-05-08T07:22:56.796Z,16.58
2023-05-08T07:25:59.491Z,16.99
2023-05-08T07:29:02.224Z,16.98
2023-05-08T07:32:07.947Z,17.04
2023-05-08T07:35:13.698Z,17.47
2023-05-08T07:38:26.905Z,17.76
2023-05-08T07:41:31.265Z,17.74
2023-05-08T07:44:40.650Z,17.73
2023-05-08T07:47:55.965Z,17.57
2023-05-08T07:50:58.305Z,17.74
2023-05-08T07:54:00.652Z,17.98
2023-05-08T07:57:02.902Z,18.08
2023-05-08T08:00:27.631Z,18.20
2023-05-08T08:03:35.160Z,18.17
2023-05-08T08:06:37.626Z,18.15
2023-05-08T08:09:39.879Z,18.35
2023-05-08T08:12:42.203Z,18.61
2023-05-08T08:15:45.174Z,19.26
2023-05-08T08:18:47.446Z,19.64
2023-05-08T08:21:49.717Z,19.47
2023-05-08T08:24:54.891Z,19.91
2023-05-08T08:28:01.690Z,18.86
2023-05-08T08:31:03.988Z,19.27
2023-05-08T08:34:08.170Z,19.55
2023-05-08T08:37:10.452Z,19.92
2023-05-08T08:40:12.931Z,19.74
2023-05-08T08:43:15.240Z,19.65
2023-05-08T08:46:20.376Z,19.96
2023-05-08T08:49:32.425Z,20.26
2023-05-08T08:53:17.631Z,20.46
2023-05-08T08:56:23.693Z,20.64
2023-05-08T08:59:28.611Z,20.64
2023-05-08T09:02:31.878Z,20.87
2023-05-08T09:05:35.844Z,21.41
2023-05-08T09:08:38.884Z,21.48
2023-05-08T09:11:41.922Z,21.55
2023-05-08T09:14:47.288Z,21.32
2023-05-08T09:17:49.652Z,21.34
2023-05-08T09:20:51.981Z,21.54
2023-05-08T09:23:58.846Z,21.27
2023-05-08T09:27:05.619Z,21.89
2023-05-08T09:30:14.333Z,22.23
2023-05-08T09:33:17.318Z,22.47
2023-05-08T09:36:32.318Z,22.58
2023-05-08T09:39:34.849Z,22.78
2023-05-08T09:42:40.394Z,22.36
2023-05-08T09:45:46.957Z,22.30
2023-05-08T09:48:50.894Z,21.72
2023-05-08T09:51:56.455Z,22.60
2023-05-08T09:55:01.889Z,22.99
2023-05-08T09:58:05.012Z,23.30
2023-05-08T10:01:08.368Z,23.29
2023-05-08T10:04:10.709Z,23.32
2023-05-08T10:07:13.085Z,23.49
2023-05-08T10:10:28.635Z,24.17
2023-05-08T10:13:30.957Z,23.30
2023-05-08T10:16:41.881Z,23.53
2023-05-08T10:19:48.487Z,23.47
2023-05-08T10:22:51.519Z,23.36
2023-05-08T10:25:59.163Z,24.27
2023-05-08T10:29:11.020Z,24.51
2023-05-08T10:32:17.122Z,24.22
2023-05-08T10:35:19.535Z,24.14
2023-05-08T10:38:22.495Z,24.27
2023-05-08T10:41:26.033Z,23.63
2023-05-08T10:44:30.187Z,23.66
2023-05-08T10:47:51.345Z,24.01
2023-05-08T10:51:14.219Z,24.44
2023-05-08T10:54:22.960Z,24.44
2023-05-08T10:57:25.483Z,23.97
2023-05-08T11:00:32.268Z,23.94
2023-05-08T11:03:50.729Z,23.80
2023-05-08T11:06:53.385Z,24.76
2023-05-08T11:10:08.398Z,24.83
2023-05-08T11:13:12.409Z,24.90
2023-05-08T11:16:14.731Z,24.82
2023-05-08T11:19:21.842Z,25.68
2023-05-08T11:22:28.637Z,25.75
2023-05-08T11:25:44.293Z,25.39
2023-05-08T11:28:59.448Z,25.97
2023-05-08T11:32:01.949Z,25.63
2023-05-08T11:35:04.684Z,25.58
2023-05-08T11:38:22.841Z,24.98
2023-05-08T11:41:25.723Z,24.62
2023-05-08T11:44:29.584Z,25.75
2023-05-08T11:47:44.719Z,26.22
2023-05-08T11:50:47.375Z,26.56
2023-05-08T11:53:49.634Z,26.87
2023-05-08T11:56:57.321Z,26.55
2023-05-08T12:00:11.492Z,25.16
2023-05-08T12:03:15.834Z,26.02
2023-05-08T12:06:18.968Z,26.08
2023-05-08T12:09:22.446Z,25.37
2023-05-08T12:12:38.016Z,26.14
2023-05-08T12:15:40.913Z,24.89
2023-05-08T12:18:44.052Z,26.40
2023-05-08T12:21:49.553Z,27.07
2023-05-08T12:24:51.837Z,26.62
2023-05-08T12:27:54.333Z,27.69
2023-05-08T12:30:57.419Z,27.33
2023-05-08T12:33:59.879Z,24.80
2023-05-08T12:37:05.363Z,26.39
2023-05-08T12:40:22.023Z,26.42
2023-05-08T12:43:37.687Z,26.70
2023-05-08T12:46:46.665Z,25.97
2023-05-08T12:49:50.233Z,25.81
2023-05-08T12:52:53.109Z,27.51
2023-05-08T12:55:57.849Z,27.47
2023-05-08T12:59:00.138Z,26.93
2023-05-08T13:02:02.472Z,27.73
2023-05-08T13:05:06.058Z,27.04
2023-05-08T13:08:12.052Z,25.26
2023-05-08T13:11:14.310Z,25.66
2023-05-08T13:14:17.074Z,26.64
2023-05-08T13:17:19.382Z,27.34
2023-05-08T13:20:25.551Z,27.24
2023-05-08T13:23:27.902Z,27.38
2023-05-08T13:26:32.391Z,26.60
2023-05-08T13:29:35.132Z,25.91
2023-05-08T13:32:37.473Z,27.17
2023-05-08T13:35:39.840Z,28.09
2023-05-08T13:38:42.162Z,27.26
2023-05-08T13:41:44.348Z,26.75
2023-05-08T13:44:46.590Z,27.15
2023-05-08T13:47:49.934Z,26.42
2023-05-08T13:50:52.216Z,26.60
2023-05-08T13:53:54.445Z,26.49
2023-05-08T13:56:56.783Z,27.34
2023-05-08T13:59:59.183Z,27.40
2023-05-08T14:03:01.429Z,26.75
2023-05-08T14:06:05.386Z,26.80
2023-05-08T14:09:07.627Z,26.87
2023-05-08T14:12:11.122Z,27.03
2023-05-08T14:15:13.528Z,27.33
2023-05-08T14:18:15.938Z,26.48
2023-05-08T14:21:19.182Z,26.84
2023-05-08T14:24:21.511Z,26.35
2023-05-08T14:27:23.833Z,26.19
2023-05-08T14:30:26.107Z,26.68
2023-05-08T14:33:32.364Z,25.95
2023-05-08T14:36:34.593Z,24.89
2023-05-08T14:39:36.944Z,24.48
2023-05-08T14:42:39.275Z,24.52
2023-05-08T14:45:41.522Z,24.59
2023-05-08T14:48:43.742Z,24.82
2023-05-08T14:51:50.956Z,24.79
2023-05-08T14:54:53.730Z,24.42
2023-05-08T14:57:56.566Z,24.01
2023-05-08T15:00:59.043Z,24.41
2023-05-08T15:04:01.498Z,24.13
2023-05-08T15:07:05.400Z,24.20
2023-05-08T15:10:11.895Z,23.94
2023-05-08T15:13:14.210Z,23.39
2023-05-08T15:16:20.411Z,23.09
2023-05-08T15:19:22.692Z,23.08
2023-05-08T15:22:26.412Z,23.09
2023-05-08T15:25:29.305Z,22.95
2023-05-08T15:28:32.055Z,22.81
2023-05-08T15:31:34.289Z,22.32
2023-05-08T15:34:37.492Z,22.32
2023-05-08T15:37:42.691Z,22.14
2023-05-08T15:40:45.077Z,21.85
2023-05-08T15:43:47.302Z,21.78
2023-05-08T15:46:50.390Z,21.90
2023-05-08T15:49:53.880Z,22.00
2023-05-08T15:52:56.894Z,21.86
2023-05-08T15:55:59.121Z,21.71
2023-05-08T15:59:01.599Z,21.71
2023-05-08T16:02:04.985Z,21.32
2023-05-08T16:05:07.579Z,21.20
2023-05-08T16:08:12.555Z,20.83
2023-05-08T16:11:15.258Z,20.52
2023-05-08T16:14:21.159Z,20.66
2023-05-08T16:17:23.489Z,20.63
2023-05-08T16:20:26.170Z,20.35
2023-05-08T16:23:28.813Z,20.21
2023-05-08T16:26:31.057Z,20.28
2023-05-08T16:29:33.360Z,20.19
2023-05-08T16:32:35.648Z,20.02
2023-05-08T16:35:39.540Z,19.72
2023-05-08T16:38:41.834Z,19.61
2023-05-08T16:41:44.145Z,19.43
2023-05-08T16:44:46.377Z,19.10
2023-05-08T16:47:48.725Z,18.99
2023-05-08T16:50:51.433Z,19.00
2023-05-08T16:53:54.540Z,19.13
2023-05-08T16:56:57.770Z,19.03
2023-05-08T17:00:00.425Z,18.90
2023-05-08T17:03:03.011Z,18.53
2023-05-08T17:06:09.284Z,18.48
2023-05-08T17:09:12.217Z,18.44
2023-05-08T17:12:14.888Z,18.41
2023-05-08T17:15:17.126Z,18.25
2023-05-08T17:18:20.418Z,18.18
2023-05-08T17:21:22.815Z,17.87
2023-05-08T17:24:25.087Z,17.73
2023-05-08T17:27:27.712Z,17.50
2023-05-08T17:30:31.637Z,17.36
2023-05-08T17:33:33.889Z,17.11
2023-05-08T17:36:36.274Z,16.85
2023-05-08T17:39:38.505Z,16.84
2023-05-08T17:42:41.144Z,16.78
2023-05-08T17:45:44.384Z,16.71
2023-05-08T17:48:46.707Z,16.70
2023-05-08T17:51:48.999Z,16.77
2023-05-08T17:54:51.693Z,16.56
2023-05-08T17:57:53.959Z,16.40
2023-05-08T18:00:57.065Z,16.37
2023-05-08T18:04:00.912Z,16.29
2023-05-08T18:07:04.186Z,16.23
2023-05-08T18:10:07.256Z,16.16
2023-05-08T18:13:09.842Z,16.12
2023-05-08T18:16:16.911Z,15.51
2023-05-08T18:19:25.736Z,15.25
2023-05-08T18:22:28.092Z,15.07
2023-05-08T18:25:30.553Z,15.10
2023-05-08T18:28:32.873Z,14.94
2023-05-08T18:31:35.159Z,14.93
2023-05-08T18:34:37.524Z,14.81
2023-05-08T18:37:39.828Z,14.87
2023-05-08T18:40:42.093Z,14.84
2023-05-08T18:43:45.039Z,14.91
2023-05-08T18:46:47.381Z,14.87
2023-05-08T18:49:56.938Z,14.88
2023-05-08T18:52:59.735Z,14.62
2023-05-08T18:56:06.795Z,14.18
2023-05-08T18:59:09.306Z,14.05
2023-05-08T19:02:11.936Z,14.08
2023-05-08T19:05:16.205Z,14.09
2023-05-08T19:08:20.068Z,14.12
2023-05-08T19:11:22.755Z,14.12
2023-05-08T19:14:25.791Z,14.04
2023-05-08T19:17:28.086Z,13.89
2023-05-08T19:20:30.465Z,13.67
2023-05-08T19:23:32.668Z,13.36
2023-05-08T19:26:36.167Z,13.40
2023-05-08T19:29:38.406Z,13.28
2023-05-08T19:32:40.899Z,13.33
2023-05-08T19:35:43.143Z,13.06
2023-05-08T19:38:45.380Z,12.96
2023-05-08T19:41:47.629Z,12.54
2023-05-08T19:44:50.033Z,12.78
2023-05-08T19:47:52.351Z,12.93
2023-05-08T19:50:55.225Z,12.97
2023-05-08T19:53:57.569Z,12.89
2023-05-08T19:56:59.811Z,12.86
2023-05-08T20:00:02.104Z,12.88
2023-05-08T20:03:06.543Z,12.81
2023-05-08T20:06:08.836Z,12.65
2023-05-08T20:09:11.195Z,12.56
2023-05-08T20:12:13.445Z,12.46
2023-05-08T20:15:15.844Z,12.30
2023-05-08T20:18:18.344Z,12.14
2023-05-08T20:21:21.115Z,12.07
2023-05-08T20:24:23.450Z,12.03
2023-05-08T20:27:25.926Z,12.16
2023-05-08T20:30:28.231Z,12.16
2023-05-08T20:33:30.609Z,12.01
2023-05-08T20:36:32.824Z,11.98
2023-05-08T20:39:35.151Z,12.03
2023-05-08T20:42:38.241Z,11.90
2023-05-08T20:45:40.656Z,11.87
2023-05-08T20:48:43.316Z,11.77
2023-05-08T20:51:45.645Z,11.62
2023-05-08T20:54:48.100Z,11.47
2023-05-08T20:57:50.370Z,11.26
2023-05-08T21:00:53.159Z,11.31
2023-05-08T21:03:55.481Z,11.14
2023-05-08T21:06:58.812Z,11.09
2023-05-08T21:10:01.342Z,11.04
2023-05-08T21:13:03.836Z,11.08
2023-05-08T21:16:07.559Z,11.11
2023-05-08T21:19:11.369Z,11.05
2023-05-08T21:22:13.962Z,10.98
2023-05-08T21:25:16.979Z,10.75
2023-05-08T21:28:19.187Z,10.57
2023-05-08T21:31:21.830Z,10.54
2023-05-08T21:34:24.087Z,10.60
2023-05-08T21:37:26.461Z,10.33
2023-05-08T21:40:28.734Z,10.21
2023-05-08T21:43:30.955Z,10.10
2023-05-08T21:46:33.182Z,10.20
2023-05-08T21:49:35.468Z,10.13
2023-05-08T21:52:37.745Z,10.23
2023-05-08T21:55:39.997Z,10.09
2023-05-08T21:58:42.473Z,10.28
2023-05-08T22:01:44.813Z,10.32
2023-05-08T22:04:47.237Z,10.19
2023-05-08T22:07:49.512Z,10.21
2023-05-08T22:10:51.941Z,10.10
2023-05-08T22:13:54.255Z,9.99
2023-05-08T22:16:56.548Z,9.88
2023-05-08T22:19:58.825Z,9.86
2023-05-08T22:23:01.200Z,9.92
2023-05-08T22:26:03.592Z,9.85
2023-05-08T22:29:05.794Z,9.78
2023-05-08T22:32:08.580Z,9.81
2023-05-08T22:35:10.986Z,9.71
2023-05-08T22:38:13.225Z,9.68
2023-05-08T22:41:15.490Z,9.75
2023-05-08T22:44:17.748Z,9.81
2023-05-08T22:47:20.206Z,9.67
2023-05-08T22:50:22.466Z,9.72
2023-05-08T22:53:24.826Z,9.48
2023-05-08T22:56:27.142Z,9.48
2023-05-08T22:59:29.483Z,9.48
2023-05-08T23:02:33.207Z,9.34
2023-05-08T23:05:35.646Z,9.24
2023-05-08T23:08:37.912Z,9.13
2023-05-08T23:11:40.770Z,9.01
2023-05-08T23:14:43.008Z,8.80
2023-05-08T23:17:45.391Z,8.76
2023-05-08T23:20:47.613Z,8.87
2023-05-08T23:23:49.828Z,8.96
2023-05-08T23:26:52.692Z,8.99
2023-05-08T23:29:54.938Z,9.10
2023-05-08T23:32:57.198Z,9.04
2023-05-08T23:36:03.386Z,9.06
2023-05-08T23:39:05.678Z,9.01
2023-05-08T23:42:08.434Z,8.89
2023-05-08T23:45:12.306Z,8.84
2023-05-08T23:48:14.992Z,8.69
2023-05-08T23:51:17.915Z,8.60
2023-05-08T23:54:20.155Z,8.62
2023-05-08T23:57:23.533Z,8.67
